Time;durP1;ratioP1;P1;durP2;ratioP2;P2;SDS_P1;SDS_P2;PMS_P1;PMS_P2;Temp;Humidity;BMP_temperature;BMP_pressure;BME280_temperature;BME280_humidity;BME280_pressure;Samples;Min_cycle;Max_cycle;Signal;HPM_P1;HPM_P2
2022/04/02 00:01:33;;;;;;;6.10;5.12;;;;;;;8.24;82.14;98196.83;1759360;79;21066;-74
2022/04/02 00:04:01;;;;;;;6.50;5.03;;;;;;;8.20;82.03;98207.28;1756386;79;21004;-73
2022/04/02 00:06:28;;;;;;;5.75;4.50;;;;;;;8.19;82.03;98203.06;1754866;80;21026;-74
2022/04/02 00:08:57;;;;;;;7.28;5.30;;;;;;;8.20;82.02;98198.53;1751734;79;20940;-75
2022/04/02 00:11:24;;;;;;;6.35;4.78;;;;;;;8.22;82.04;98209.09;1769308;80;21155;-74
2022/04/02 00:13:51;;;;;;;5.95;4.50;;;;;;;8.28;82.07;98219.63;1755538;79;21082;-74
2022/04/02 00:16:19;;;;;;;6.60;4.75;;;;;;;8.33;82.00;98224.30;1759885;79;21584;-74
2022/04/02 00:18:49;;;;;;;7.03;4.75;;;;;;;8.40;81.90;98229.24;1747334;80;21449;-74
2022/04/02 00:21:17;;;;;;;7.17;5.70;;;;;;;8.41;81.82;98220.17;1757315;79;21601;-73
2022/04/02 00:23:46;;;;;;;6.25;5.15;;;;;;;8.45;81.77;98211.28;1757140;80;21043;-77
2022/04/02 00:26:20;;;;;;;6.70;5.50;;;;;;;8.45;81.58;98213.16;1719478;82;21039;-75
2022/04/02 00:28:49;;;;;;;6.10;4.62;;;;;;;8.41;81.41;98220.95;1736463;80;21411;-74
2022/04/02 00:31:18;;;;;;;6.08;4.85;;;;;;;8.41;81.40;98225.48;1756476;80;21560;-74
2022/04/02 00:33:47;;;;;;;6.22;4.97;;;;;;;8.41;81.29;98218.84;1754056;80;21078;-75
2022/04/02 00:36:15;;;;;;;6.37;5.05;;;;;;;8.34;81.10;98227.75;1762524;80;21116;-74
2022/04/02 00:38:44;;;;;;;6.85;5.22;;;;;;;8.32;81.15;98235.22;1761226;80;20949;-74
2022/04/02 00:41:13;;;;;;;7.25;4.87;;;;;;;8.34;81.20;98231.73;1758642;80;21095;-73
2022/04/02 00:43:46;;;;;;;5.92;4.60;;;;;;;8.38;81.17;98240.72;1769320;80;21054;-75
2022/04/02 00:46:12;;;;;;;6.67;4.92;;;;;;;8.46;81.21;98254.66;1725711;82;21007;-76
2022/04/02 00:48:39;;;;;;;6.50;5.22;;;;;;;8.43;81.06;98260.02;1756066;79;21219;-76
2022/04/02 00:51:10;;;;;;;6.97;5.20;;;;;;;8.46;81.10;98255.98;1755661;80;21050;-75
2022/04/02 00:53:40;;;;;;;7.12;5.15;;;;;;;8.50;81.06;98266.81;1747157;79;21086;-75
2022/04/02 00:56:08;;;;;;;7.12;4.95;;;;;;;8.52;80.92;98247.33;1750668;80;21046;-75
2022/04/02 00:58:39;;;;;;;6.33;5.12;;;;;;;8.51;80.88;98244.44;1746301;80;21688;-74
2022/04/02 01:01:09;;;;;;;7.12;4.90;;;;;;;8.50;80.85;98248.19;1755163;80;21100;-76
2022/04/02 01:03:38;;;;;;;7.55;4.85;;;;;;;8.50;80.77;98264.94;1727742;81;21624;-75
2022/04/02 01:06:06;;;;;;;6.42;4.47;;;;;;;8.52;80.78;98286.69;1715952;82;21019;-75
2022/04/02 01:08:36;;;;;;;5.92;4.30;;;;;;;8.56;80.74;98278.37;1756514;79;21145;-76
2022/04/02 01:11:03;;;;;;;5.03;3.80;;;;;;;8.51;80.67;98251.08;1694169;82;21561;-75
2022/04/02 01:13:34;;;;;;;5.40;4.05;;;;;;;8.47;80.69;98252.23;1751224;80;21181;-76
2022/04/02 01:16:05;;;;;;;5.70;4.10;;;;;;;8.44;80.68;98250.16;1722803;82;21023;-76
2022/04/02 01:18:34;;;;;;;6.53;4.95;;;;;;;8.39;80.63;98243.61;1731361;80;21031;-76
2022/04/02 01:21:02;;;;;;;9.05;5.85;;;;;;;8.34;80.61;98234.39;1745434;80;21019;-76
2022/04/02 01:23:31;;;;;;;9.53;6.08;;;;;;;8.30;80.61;98228.89;1770284;80;21051;-75
2022/04/02 01:26:02;;;;;;;7.45;5.22;;;;;;;8.28;80.67;98236.37;1753565;80;21248;-75
2022/04/02 01:28:34;;;;;;;7.22;5.05;;;;;;;8.30;80.71;98240.08;1778677;80;21075;-75
2022/04/02 01:31:06;;;;;;;7.00;4.80;;;;;;;8.30;80.72;98238.74;1777124;79;20960;-74
2022/04/02 01:33:35;;;;;;;6.78;4.40;;;;;;;8.31;80.67;98230.45;1780417;80;21003;-76
2022/04/02 01:36:08;;;;;;;6.87;4.50;;;;;;;8.28;80.48;98223.62;1745120;80;21525;-75
2022/04/02 01:38:37;;;;;;;5.85;4.10;;;;;;;8.19;80.42;98227.00;1751272;80;21207;-74
2022/04/02 01:41:06;;;;;;;5.78;3.52;;;;;;;8.15;80.50;98224.66;1772930;80;21486;-76
2022/04/02 01:43:35;;;;;;;5.37;3.67;;;;;;;8.12;80.51;98221.27;1776020;80;21012;-75
2022/04/02 01:46:03;;;;;;;4.78;3.20;;;;;;;8.07;80.45;98209.42;1762743;80;21679;-74
2022/04/02 01:48:32;;;;;;;5.05;3.45;;;;;;;8.03;80.49;98216.95;1747484;80;21007;-75
2022/04/02 01:51:02;;;;;;;5.10;3.30;;;;;;;8.01;80.45;98219.13;1748524;81;21586;-75
2022/04/02 01:53:30;;;;;;;6.12;3.80;;;;;;;7.98;80.34;98208.55;1763680;80;21521;-75
2022/04/02 01:55:57;;;;;;;4.85;3.10;;;;;;;7.91;80.29;98212.93;1773506;80;20992;-74
2022/04/02 01:58:26;;;;;;;4.40;3.05;;;;;;;7.89;80.38;98210.31;1746545;80;21529;-78
2022/04/02 02:00:55;;;;;;;4.22;2.47;;;;;;;7.87;80.31;98205.31;1758366;80;21502;-77
2022/04/02 02:03:24;;;;;;;4.15;2.72;;;;;;;7.83;80.33;98203.01;1780849;80;21091;-74
2022/04/02 02:05:53;;;;;;;4.87;3.10;;;;;;;7.83;80.36;98203.01;1770606;79;21116;-75
2022/04/02 02:08:23;;;;;;;5.40;2.80;;;;;;;7.82;80.36;98188.13;1750443;80;21055;-77
2022/04/02 02:10:59;;;;;;;4.80;3.00;;;;;;;7.84;80.31;98190.50;1749114;81;20980;-76
2022/04/02 02:13:32;;;;;;;4.70;2.87;;;;;;;7.79;80.31;98190.05;1669381;82;20964;-74
2022/04/02 02:16:01;;;;;;;4.12;2.90;;;;;;;7.80;80.28;98188.17;1750012;81;21359;-74
2022/04/02 02:18:29;;;;;;;5.42;3.47;;;;;;;7.77;80.22;98192.23;1718833;81;22366;-75
2022/04/02 02:20:56;;;;;;;4.62;3.17;;;;;;;7.74;80.19;98192.27;1780784;79;21000;-75
2022/04/02 02:23:23;;;;;;;5.10;3.10;;;;;;;7.73;80.19;98189.38;1780698;80;20980;-74
2022/04/02 02:25:51;;;;;;;4.15;2.92;;;;;;;7.71;80.17;98182.23;1779315;79;21043;-75
2022/04/02 02:28:20;;;;;;;5.65;3.00;;;;;;;7.70;80.11;98183.33;1779594;80;21310;-74
2022/04/02 02:30:47;;;;;;;5.03;3.33;;;;;;;7.69;80.10;98181.73;1780116;80;20976;-74
2022/04/02 02:36:01;;;;;;;5.55;3.05;;;;;;;7.71;80.09;98172.15;1735082;80;21527;-75
2022/04/02 02:38:32;;;;;;;4.72;3.27;;;;;;;7.68;79.96;98166.88;1755461;80;22524;-75
2022/04/02 02:41:01;;;;;;;4.33;3.00;;;;;;;7.64;79.93;98183.17;1746896;81;21217;-75
2022/04/02 02:43:31;;;;;;;4.90;3.05;;;;;;;7.61;79.93;98178.45;1748830;80;20979;-75
2022/04/02 02:46:00;;;;;;;4.35;3.17;;;;;;;7.61;79.91;98163.05;1748062;80;21530;-76
2022/04/02 02:48:27;;;;;;;4.83;3.10;;;;;;;7.56;79.83;98163.92;1762776;80;20996;-75
2022/04/02 02:50:56;;;;;;;4.83;3.20;;;;;;;7.52;79.83;98167.72;1736227;82;21156;-75
2022/04/02 02:53:24;;;;;;;5.67;3.10;;;;;;;7.52;79.85;98168.26;1735800;80;21608;-76
2022/04/02 02:55:52;;;;;;;5.35;3.65;;;;;;;7.51;79.87;98161.38;1765046;81;20949;-74
2022/04/02 02:58:20;;;;;;;5.62;3.25;;;;;;;7.50;79.92;98162.44;1745798;81;20982;-75
2022/04/02 03:00:48;;;;;;;5.70;3.10;;;;;;;7.54;80.01;98162.13;1757864;79;21015;-76
2022/04/02 03:03:17;;;;;;;6.55;3.92;;;;;;;7.57;79.88;98164.19;1757388;80;21015;-75
2022/04/02 03:05:46;;;;;;;6.87;3.67;;;;;;;7.55;79.75;98169.00;1752463;80;21142;-74
2022/04/02 03:08:16;;;;;;;6.40;4.03;;;;;;;7.56;79.70;98167.91;1756804;79;21159;-75
2022/04/02 03:10:45;;;;;;;7.15;4.20;;;;;;;7.58;79.67;98160.98;1721287;82;21529;-74
2022/04/02 03:13:14;;;;;;;6.65;4.55;;;;;;;7.61;79.66;98162.51;1748735;80;21577;-74
2022/04/02 03:15:43;;;;;;;5.45;3.85;;;;;;;7.64;79.62;98166.45;1749675;82;20961;-74
2022/04/02 03:18:11;;;;;;;5.65;4.05;;;;;;;7.65;79.52;98164.81;1760847;79;21874;-74
2022/04/02 03:20:41;;;;;;;7.25;4.22;;;;;;;7.65;79.50;98163.48;1749536;80;20956;-75
2022/04/02 03:23:10;;;;;;;6.67;4.37;;;;;;;7.67;79.45;98151.25;1716727;82;21082;-73
2022/04/02 03:25:38;;;;;;;7.53;4.60;;;;;;;7.66;79.41;98153.09;1778825;80;21066;-75
2022/04/02 03:28:07;;;;;;;8.43;4.40;;;;;;;7.68;79.33;98150.16;1773594;79;21020;-74
2022/04/02 03:30:38;;;;;;;6.58;4.45;;;;;;;7.67;79.30;98148.05;1754917;80;21405;-73
2022/04/02 03:33:05;;;;;;;8.53;4.12;;;;;;;7.67;79.30;98148.05;1757827;79;21119;-76
2022/04/02 03:35:33;;;;;;;7.97;4.50;;;;;;;7.67;79.23;98134.77;1759786;80;21039;-76
2022/04/02 03:38:00;;;;;;;8.73;4.70;;;;;;;7.61;79.09;98130.62;1750926;80;21062;-76
2022/04/02 03:40:28;;;;;;;9.30;4.87;;;;;;;7.54;79.10;98130.25;1749417;80;21047;-75
2022/04/02 03:42:55;;;;;;;9.00;5.12;;;;;;;7.51;79.19;98134.27;1760746;79;21628;-74
2022/04/02 03:45:27;;;;;;;6.70;3.87;;;;;;;7.50;79.30;98130.05;1724072;82;20972;-73
2022/04/02 03:47:57;;;;;;;6.40;4.25;;;;;;;7.49;79.30;98126.34;1715683;80;21055;-75
2022/04/02 03:50:25;;;;;;;8.35;4.37;;;;;;;7.47;79.23;98125.87;1749052;82;20980;-74
2022/04/02 03:52:56;;;;;;;8.78;5.33;;;;;;;7.40;79.27;98126.24;1737093;80;21016;-75
2022/04/02 03:55:25;;;;;;;7.15;4.95;;;;;;;7.40;79.38;98126.78;1708979;82;21185;-74
2022/04/02 03:57:53;;;;;;;9.53;5.40;;;;;;;7.40;79.50;98116.16;1758215;79;21031;-74
2022/04/02 04:00:23;;;;;;;9.90;5.15;;;;;;;7.42;79.62;98108.70;1749126;80;21031;-75
2022/04/02 04:02:55;;;;;;;9.60;5.08;;;;;;;7.45;79.58;98108.11;1760522;79;21102;-74
2022/04/02 04:05:30;;;;;;;10.72;5.70;;;;;;;7.47;79.52;98112.59;1759721;79;21010;-74
2022/04/02 04:07:59;;;;;;;9.03;5.67;;;;;;;7.45;79.54;98104.13;1728241;81;21148;-76
2022/04/02 04:10:27;;;;;;;9.45;6.12;;;;;;;7.43;79.54;98096.44;1735313;80;20960;-74
2022/04/02 04:12:56;;;;;;;12.28;6.42;;;;;;;7.43;79.54;98093.78;1760087;79;21059;-74
2022/04/02 04:15:25;;;;;;;11.68;5.92;;;;;;;7.41;79.55;98093.86;1726967;81;20972;-74
2022/04/02 04:17:53;;;;;;;10.88;6.40;;;;;;;7.40;79.62;98096.25;1772987;78;21062;-74
2022/04/02 04:20:22;;;;;;;9.18;6.03;;;;;;;7.40;79.62;98102.89;1781456;80;21136;-75
2022/04/02 04:22:50;;;;;;;10.08;5.65;;;;;;;7.36;79.60;98103.23;1722385;82;21138;-76
2022/04/02 04:25:18;;;;;;;11.97;6.70;;;;;;;7.32;79.59;98111.56;1752768;80;20996;-74
2022/04/02 04:27:47;;;;;;;10.72;5.50;;;;;;;7.27;79.55;98111.91;1752798;82;21012;-75
2022/04/02 04:30:16;;;;;;;11.83;6.70;;;;;;;7.26;79.61;98112.19;1767898;80;21030;-75
2022/04/02 04:32:45;;;;;;;10.93;5.92;;;;;;;7.26;79.70;98118.28;1748823;82;21612;-75
2022/04/02 04:35:12;;;;;;;9.93;6.12;;;;;;;7.29;79.73;98110.27;1732869;80;20952;-74
2022/04/02 04:37:40;;;;;;;12.73;6.50;;;;;;;7.27;79.68;98107.11;1742439;81;20965;-74
2022/04/02 04:40:10;;;;;;;14.65;6.20;;;;;;;7.27;79.82;98102.61;1736958;81;20940;-74
2022/04/02 04:42:39;;;;;;;12.37;6.90;;;;;;;7.34;79.88;98107.53;1765718;81;20952;-74
2022/04/02 04:45:09;;;;;;;14.00;7.60;;;;;;;7.36;79.84;98097.92;1735781;81;21197;-74
2022/04/02 04:47:36;;;;;;;13.13;6.53;;;;;;;7.38;79.80;98096.55;1724379;81;21199;-75
2022/04/02 04:50:07;;;;;;;12.37;7.53;;;;;;;7.38;79.75;98099.76;1743713;81;21106;-72
2022/04/02 04:52:36;;;;;;;13.22;7.03;;;;;;;7.38;79.69;98101.09;1752797;81;21019;-74
2022/04/02 04:55:06;;;;;;;15.35;8.53;;;;;;;7.35;79.63;98102.45;1746888;81;21070;-74
2022/04/02 04:57:34;;;;;;;11.22;7.22;;;;;;;7.29;79.50;98112.92;1743612;81;21164;-77
2022/04/02 05:00:05;;;;;;;15.60;8.93;;;;;;;7.25;79.67;98107.42;1712718;81;21538;-75
2022/04/02 05:02:35;;;;;;;11.48;6.70;;;;;;;7.25;79.77;98116.72;1739810;81;21584;-76
2022/04/02 05:05:04;;;;;;;14.53;8.30;;;;;;;7.32;79.87;98109.69;1743984;80;21016;-75
2022/04/02 05:07:34;;;;;;;12.68;7.42;;;;;;;7.36;79.80;98107.22;1746537;81;21051;-74
2022/04/02 05:10:03;;;;;;;14.13;7.53;;;;;;;7.38;79.76;98110.37;1741999;81;21691;-75
2022/04/02 05:12:33;;;;;;;16.07;8.20;;;;;;;7.38;79.73;98105.85;1741490;81;21122;-74
2022/04/02 05:15:02;;;;;;;15.55;7.75;;;;;;;7.40;79.74;98106.87;1764505;79;20943;-75
2022/04/02 05:17:33;;;;;;;12.70;7.22;;;;;;;7.42;79.63;98100.19;1732791;81;20991;-74
2022/04/02 05:20:04;;;;;;;12.37;6.90;;;;;;;7.43;79.61;98112.92;1750834;82;21046;-75
2022/04/02 05:22:32;;;;;;;11.78;6.90;;;;;;;7.42;79.57;98106.05;1763839;79;21125;-75
2022/04/02 05:24:59;;;;;;;12.58;7.25;;;;;;;7.41;79.43;98099.17;1745544;80;21142;-75
2022/04/02 05:27:28;;;;;;;13.08;6.97;;;;;;;7.34;79.36;98089.46;1757601;80;21028;-75
2022/04/02 05:29:55;;;;;;;13.95;7.62;;;;;;;7.29;79.43;98089.81;1731775;81;21059;-73
2022/04/02 05:32:23;;;;;;;14.83;7.58;;;;;;;7.29;79.55;98090.36;1746349;80;21031;-75
2022/04/02 05:34:50;;;;;;;10.90;6.17;;;;;;;7.32;79.66;98096.95;1760437;79;21185;-75
2022/04/02 05:37:17;;;;;;;14.25;7.20;;;;;;;7.35;79.65;98093.16;1740442;80;20949;-75
2022/04/02 05:39:45;;;;;;;15.48;7.70;;;;;;;7.35;79.55;98093.71;1755423;79;21699;-75
2022/04/02 05:42:12;;;;;;;15.55;7.28;;;;;;;7.29;79.50;98087.70;1760318;79;21054;-75
2022/04/02 05:44:40;;;;;;;14.87;7.25;;;;;;;7.22;79.52;98089.97;1721323;82;21532;-75
2022/04/02 05:47:07;;;;;;;15.90;7.22;;;;;;;7.23;79.68;98096.30;1756452;80;22332;-74
2022/04/02 05:49:34;;;;;;;13.45;6.97;;;;;;;7.25;79.74;98094.14;1723738;81;20971;-74
2022/04/02 05:52:04;;;;;;;13.13;7.20;;;;;;;7.29;79.76;98102.30;1746533;80;21549;-75
2022/04/02 05:54:34;;;;;;;10.75;6.28;;;;;;;7.29;79.62;98092.47;1758267;80;20988;-76
2022/04/02 05:57:01;;;;;;;13.32;7.05;;;;;;;7.23;79.52;98093.64;1757473;79;21081;-75
2022/04/02 05:59:29;;;;;;;14.03;7.35;;;;;;;7.17;79.59;98091.38;1768229;80;21156;-76
2022/04/02 06:01:56;;;;;;;16.75;7.22;;;;;;;7.17;79.75;98085.55;1770358;79;21059;-75
2022/04/02 06:04:25;;;;;;;11.85;6.25;;;;;;;7.22;79.88;98078.02;1756755;80;21134;-75
2022/04/02 06:06:54;;;;;;;13.13;5.95;;;;;;;7.25;79.93;98074.78;1758852;80;21596;-76
2022/04/02 06:09:22;;;;;;;12.18;5.35;;;;;;;7.31;80.01;98082.11;1753847;80;21641;-74
2022/04/02 06:11:50;;;;;;;9.75;5.78;;;;;;;7.36;80.04;98083.33;1755948;79;21366;-75
2022/04/02 06:14:17;;;;;;;12.15;5.83;;;;;;;7.43;80.08;98091.67;1763572;79;21248;-75
2022/04/02 06:16:44;;;;;;;9.25;5.90;;;;;;;7.49;80.03;98093.15;1736566;80;21024;-74
2022/04/02 06:19:12;;;;;;;9.38;5.87;;;;;;;7.54;79.88;98099.70;1759111;80;21043;-74
2022/04/02 06:21:39;;;;;;;8.55;5.67;;;;;;;7.59;79.82;98090.28;1730811;82;21592;-74
2022/04/02 06:24:06;;;;;;;10.23;5.12;;;;;;;7.64;79.70;98102.14;1750343;80;21242;-75
2022/04/02 06:26:34;;;;;;;9.53;5.40;;;;;;;7.68;79.55;98097.80;1753600;80;21070;-75
2022/04/02 06:29:02;;;;;;;10.60;6.10;;;;;;;7.71;79.34;98104.40;1770352;79;21011;-74
2022/04/02 06:31:29;;;;;;;12.47;7.28;;;;;;;7.71;79.26;98102.52;1751853;80;21023;-74
2022/04/02 06:33:57;;;;;;;14.58;8.00;;;;;;;7.69;79.00;98111.32;1751563;79;21103;-74
2022/04/02 06:36:24;;;;;;;16.32;8.70;;;;;;;7.68;78.93;98108.97;1755920;80;21394;-74
2022/04/02 06:38:53;;;;;;;14.68;8.38;;;;;;;7.66;78.74;98111.13;1748148;81;21038;-74
2022/04/02 06:41:20;;;;;;;13.28;8.68;;;;;;;7.61;78.60;98112.03;1750072;80;21049;-73
2022/04/02 06:43:47;;;;;;;16.82;9.63;;;;;;;7.59;78.55;98100.12;1749220;81;21091;-75
2022/04/02 06:46:17;;;;;;;16.12;9.15;;;;;;;7.56;78.53;98093.53;1748740;82;21471;-74
2022/04/02 06:48:44;;;;;;;17.82;10.75;;;;;;;7.54;78.46;98101.03;1750820;80;21630;-75
2022/04/02 06:51:12;;;;;;;20.35;11.18;;;;;;;7.49;78.42;98096.59;1755835;79;21028;-74
2022/04/02 06:53:39;;;;;;;21.27;10.95;;;;;;;7.45;78.44;98102.80;1748239;80;21089;-73
2022/04/02 06:56:06;;;;;;;17.98;10.60;;;;;;;7.44;78.58;98112.64;1749387;82;20956;-75
2022/04/02 06:58:36;;;;;;;17.02;9.68;;;;;;;7.49;78.59;98117.05;1748867;80;21059;-75
2022/04/02 07:01:08;;;;;;;20.48;11.40;;;;;;;7.50;78.57;98105.34;1770781;80;21256;-75
2022/04/02 07:03:37;;;;;;;16.27;9.53;;;;;;;7.46;78.50;98103.81;1777040;79;21000;-73
2022/04/02 07:06:04;;;;;;;16.77;9.48;;;;;;;7.49;78.55;98101.12;1777625;80;20936;-74
2022/04/02 07:08:35;;;;;;;12.90;8.38;;;;;;;7.50;78.51;98094.71;1750267;80;21000;-74
2022/04/02 07:24:33;;;;;;;11.20;7.30;;;;;;;7.85;77.60;98085.22;1781487;80;22023;-69
2022/04/02 07:27:00;;;;;;;12.90;6.72;;;;;;;7.80;77.39;98096.48;1752163;81;20952;-70
2022/04/02 07:29:28;;;;;;;12.20;6.87;;;;;;;7.72;77.30;98090.80;1752389;81;21148;-69
2022/04/02 07:31:55;;;;;;;12.10;7.08;;;;;;;7.65;77.23;98093.63;1753319;81;20974;-71
2022/04/02 07:34:24;;;;;;;14.93;8.85;;;;;;;7.55;77.23;98101.27;1754373;81;21002;-71
2022/04/02 07:37:07;;;;;;;16.10;9.03;;;;;;;7.51;77.32;98105.60;1751890;82;20947;-71
2022/04/02 07:40:06;;;;;;;21.27;11.85;;;;;;;7.47;77.34;98117.91;1752201;82;21588;-70
2022/04/02 07:43:25;;;;;;;19.65;11.28;;;;;;;7.44;77.45;98128.58;1751403;81;21636;-70
2022/04/02 07:46:06;;;;;;;17.25;8.73;;;;;;;7.44;77.65;98127.80;1752541;81;20879;-70
2022/04/02 07:48:37;;;;;;;13.93;8.03;;;;;;;7.52;77.76;98135.84;1737529;81;21439;-70
2022/04/02 07:51:10;;;;;;;17.20;9.08;;;;;;;7.55;77.71;98141.66;1752053;82;21055;-70
2022/04/02 07:53:47;;;;;;;18.80;9.63;;;;;;;7.54;77.61;98134.23;1751753;82;21505;-71
2022/04/02 07:56:27;;;;;;;14.38;8.15;;;;;;;7.54;77.54;98138.77;1751405;82;21163;-71
2022/04/02 07:59:01;;;;;;;11.45;6.05;;;;;;;7.52;77.56;98133.19;1753144;81;21426;-69
2022/04/02 08:01:28;;;;;;;17.10;9.75;;;;;;;7.51;77.51;98132.16;1738561;81;21046;-70
2022/04/02 08:03:58;;;;;;;19.23;11.95;;;;;;;7.48;77.49;98124.78;1752004;81;21538;-70
2022/04/02 08:06:25;;;;;;;18.90;10.10;;;;;;;7.49;77.66;98123.69;1731914;81;21027;-70
2022/04/02 08:08:54;;;;;;;13.98;8.15;;;;;;;7.48;77.68;98111.50;1753460;81;21321;-71
2022/04/02 08:11:21;;;;;;;17.92;9.35;;;;;;;7.47;77.73;98113.92;1743460;81;20999;-70
2022/04/02 08:13:51;;;;;;;14.35;7.62;;;;;;;7.50;77.80;98115.45;1728176;81;21051;-70
2022/04/02 08:16:20;;;;;;;10.55;5.90;;;;;;;7.52;77.74;98112.48;1743949;81;21082;-71
2022/04/02 08:18:49;;;;;;;8.98;5.40;;;;;;;7.49;77.73;98111.73;1726913;81;21121;-71
2022/04/02 08:21:18;;;;;;;8.85;4.53;;;;;;;7.47;77.70;98112.59;1707194;83;21556;-70
2022/04/02 08:23:45;;;;;;;8.85;4.72;;;;;;;7.43;77.59;98112.38;1695676;84;21083;-71
2022/04/02 08:26:26;;;;;;;8.73;4.50;;;;;;;7.37;77.55;98116.75;1712966;83;21572;-71
2022/04/02 08:29:32;;;;;;;9.00;4.85;;;;;;;7.32;77.55;98120.85;1727658;81;21006;-70
2022/04/02 08:32:26;;;;;;;8.70;4.20;;;;;;;7.25;77.56;98127.33;1694642;84;21129;-72
2022/04/02 08:35:09;;;;;;;9.75;4.50;;;;;;;7.23;77.74;98126.83;1716148;81;21274;-71
2022/04/02 08:38:17;;;;;;;12.05;4.90;;;;;;;7.21;77.81;98126.35;1733556;81;20988;-71
2022/04/02 08:41:06;;;;;;;7.55;4.40;;;;;;;7.23;77.93;98128.70;1719493;81;21081;-71
2022/04/02 08:44:17;;;;;;;10.82;5.00;;;;;;;7.28;77.98;98136.59;1734059;81;21000;-70
2022/04/02 08:47:25;;;;;;;9.10;4.62;;;;;;;7.32;77.91;98135.45;1728762;81;21097;-70
2022/04/02 08:50:13;;;;;;;11.00;5.30;;;;;;;7.34;77.87;98134.60;1724747;83;21795;-70
2022/04/02 08:52:56;;;;;;;9.60;4.70;;;;;;;7.35;77.93;98138.30;1736487;81;21556;-70
2022/04/02 08:55:34;;;;;;;8.28;4.05;;;;;;;7.36;77.94;98143.07;1708631;83;21026;-73
2022/04/02 08:58:25;;;;;;;11.88;4.90;;;;;;;7.39;77.86;98143.27;1698609;83;21053;-74
2022/04/02 09:01:00;;;;;;;10.78;4.67;;;;;;;7.41;77.79;98148.30;1694159;82;21066;-73
2022/04/02 09:03:59;;;;;;;9.58;4.42;;;;;;;7.39;77.50;98147.25;1695676;83;21501;-74
2022/04/02 09:07:03;;;;;;;9.90;4.42;;;;;;;7.39;77.37;98147.80;1687229;83;20964;-73
2022/04/02 09:09:53;;;;;;;9.08;4.70;;;;;;;7.43;77.39;98155.41;1724438;83;21050;-73
2022/04/02 09:12:40;;;;;;;7.03;3.75;;;;;;;7.51;77.31;98155.52;1699660;82;21113;-73
2022/04/02 09:15:15;;;;;;;8.83;3.62;;;;;;;7.57;77.10;98154.89;1687800;82;21075;-74
2022/04/02 09:18:05;;;;;;;7.17;3.72;;;;;;;7.60;76.89;98157.47;1690745;82;21592;-72
2022/04/02 09:21:24;;;;;;;9.08;3.20;;;;;;;7.60;76.47;98158.29;1659977;82;21638;-72
2022/04/02 09:24:21;;;;;;;6.85;3.33;;;;;;;7.57;76.13;98162.86;1711008;83;21501;-72
2022/04/02 09:27:29;;;;;;;6.92;3.52;;;;;;;7.55;75.81;98164.23;1685452;83;21036;-71
2022/04/02 09:30:07;;;;;;;8.98;3.92;;;;;;;7.51;75.68;98166.15;1709675;81;21089;-71
2022/04/02 09:33:16;;;;;;;7.17;4.10;;;;;;;7.50;75.75;98159.79;1679448;83;21144;-73
2022/04/02 09:36:11;;;;;;;7.40;3.72;;;;;;;7.55;75.73;98159.70;1690044;82;21013;-70
2022/04/02 09:39:06;;;;;;;9.18;4.15;;;;;;;7.52;75.58;98160.29;1711195;82;21057;-71
2022/04/02 09:41:58;;;;;;;8.90;4.10;;;;;;;7.50;75.59;98161.11;1685083;83;21020;-72
2022/04/02 09:45:09;;;;;;;8.30;4.40;;;;;;;7.46;75.64;98169.43;1694808;82;21011;-72
2022/04/02 09:47:51;;;;;;;8.15;3.90;;;;;;;7.40;75.70;98167.41;1714416;83;21626;-71
2022/04/02 09:50:24;;;;;;;8.95;4.10;;;;;;;7.34;75.68;98169.13;1684072;84;21043;-71
2022/04/02 09:53:08;;;;;;;9.20;4.10;;;;;;;7.27;75.82;98183.59;1695375;84;21007;-70
2022/04/02 09:56:15;;;;;;;8.53;3.67;;;;;;;7.21;75.94;98180.00;1725533;83;21664;-70
2022/04/02 09:59:05;;;;;;;6.72;4.03;;;;;;;7.17;76.22;98190.41;1697732;83;21748;-70
2022/04/02 10:02:00;;;;;;;10.38;4.67;;;;;;;7.15;76.37;98183.81;1723437;83;21560;-71
2022/04/02 10:04:44;;;;;;;10.35;4.30;;;;;;;7.12;76.50;98181.20;1693443;82;21074;-69
2022/04/02 10:07:44;;;;;;;6.95;3.90;;;;;;;7.11;76.63;98185.45;1706677;83;21021;-71
2022/04/02 10:10:11;;;;;;;8.58;4.50;;;;;;;7.16;76.78;98186.71;1670666;84;21130;-70
2022/04/02 10:12:40;;;;;;;9.40;4.30;;;;;;;7.13;76.75;98189.41;1694481;84;21089;-69
2022/04/02 10:15:08;;;;;;;11.18;5.22;;;;;;;7.16;76.94;98186.17;1665870;84;21121;-69
2022/04/02 10:17:36;;;;;;;10.28;5.37;;;;;;;7.22;77.06;98194.30;1719900;81;21549;-70
2022/04/02 10:20:05;;;;;;;13.70;7.22;;;;;;;7.30;77.11;98200.78;1694332;82;21687;-72
2022/04/02 10:22:45;;;;;;;14.10;8.03;;;;;;;7.36;76.97;98204.15;1742898;81;21098;-70
2022/04/02 10:25:14;;;;;;;12.93;7.25;;;;;;;7.39;76.85;98204.34;1709128;83;21019;-69
2022/04/02 10:27:44;;;;;;;13.58;7.50;;;;;;;7.40;76.74;98199.27;1706973;83;21219;-69
2022/04/02 10:30:13;;;;;;;15.78;7.95;;;;;;;7.40;76.64;98207.23;1712135;81;20999;-69
2022/04/02 10:33:26;;;;;;;15.83;8.33;;;;;;;7.42;76.64;98210.95;1730357;81;20977;-69
2022/04/02 10:35:27;;;;;;;19.95;9.38;;;;;;;7.44;76.64;98220.75;1701417;82;20990;-69
2022/04/02 10:38:07;;;;;;;18.12;8.08;;;;;;;7.49;76.67;98217.98;1677063;84;20984;-69
2022/04/02 10:40:42;;;;;;;20.60;8.75;;;;;;;7.54;76.52;98223.22;1710043;83;21884;-69
2022/04/02 10:43:30;;;;;;;19.27;9.23;;;;;;;7.55;76.41;98230.64;1702438;83;21176;-69
2022/04/02 10:45:58;;;;;;;16.82;8.30;;;;;;;7.53;76.33;98228.27;1686481;83;21165;-68
2022/04/02 10:48:56;;;;;;;15.32;7.30;;;;;;;7.56;76.40;98228.22;1684440;83;21059;-69
2022/04/02 10:51:25;;;;;;;11.48;6.53;;;;;;;7.59;76.34;98232.41;1714026;81;21193;-70
2022/04/02 10:54:07;;;;;;;11.28;5.97;;;;;;;7.62;76.21;98230.48;1727272;83;21110;-69
2022/04/02 10:56:45;;;;;;;12.90;6.75;;;;;;;7.61;75.98;98231.58;1706389;82;21063;-70
2022/04/02 10:59:18;;;;;;;13.55;8.18;;;;;;;7.52;75.82;98231.46;1681904;84;21073;-69
2022/04/02 11:01:52;;;;;;;13.28;8.23;;;;;;;7.47;75.79;98232.12;1691152;83;21015;-70
2022/04/02 11:04:32;;;;;;;13.13;8.50;;;;;;;7.45;75.83;98234.27;1714103;82;21011;-70
2022/04/02 11:07:00;;;;;;;12.78;8.08;;;;;;;7.47;75.95;98234.77;1704147;83;21241;-71
2022/04/02 11:09:39;;;;;;;15.40;9.33;;;;;;;7.47;75.82;98232.12;1703789;82;21023;-69
2022/04/02 11:12:18;;;;;;;14.95;9.45;;;;;;;7.39;75.56;98249.50;1705794;82;21007;-69
2022/04/02 11:14:49;;;;;;;13.38;8.93;;;;;;;7.26;75.67;98232.45;1686871;82;21057;-69
2022/04/02 11:17:35;;;;;;;14.10;9.03;;;;;;;7.20;75.94;98232.28;1696226;82;21105;-69
2022/04/02 11:20:20;;;;;;;16.73;10.85;;;;;;;7.22;76.14;98236.77;1710421;81;21040;-70
2022/04/02 11:23:05;;;;;;;14.07;7.70;;;;;;;7.27;76.38;98240.69;1684901;82;21065;-69
2022/04/02 11:25:35;;;;;;;11.22;7.33;;;;;;;7.32;76.26;98240.34;1688354;82;21089;-69
2022/04/02 11:28:11;;;;;;;9.85;6.62;;;;;;;7.36;76.22;98241.33;1746204;81;21146;-69
2022/04/02 11:31:04;;;;;;;10.78;5.97;;;;;;;7.36;76.14;98228.83;1709140;81;20943;-70
2022/04/02 11:33:33;;;;;;;6.92;4.55;;;;;;;7.37;76.12;98230.94;1696622;83;21057;-69
2022/04/02 11:36:06;;;;;;;7.62;4.62;;;;;;;7.41;76.26;98231.95;1680329;83;21035;-69
2022/04/02 11:38:42;;;;;;;7.75;4.20;;;;;;;7.49;76.31;98240.56;1721839;83;21154;-69
2022/04/02 11:41:32;;;;;;;7.97;3.92;;;;;;;7.54;76.15;98239.70;1712510;81;21518;-69
2022/04/02 11:44:09;;;;;;;6.53;3.40;;;;;;;7.56;75.86;98244.16;1677786;84;21153;-69
2022/04/02 11:47:07;;;;;;;5.70;3.35;;;;;;;7.57;75.49;98243.07;1706776;82;21232;-69
2022/04/02 11:49:40;;;;;;;4.87;2.80;;;;;;;7.57;75.27;98241.23;1728183;81;21035;-68
2022/04/02 11:52:12;;;;;;;5.60;2.85;;;;;;;7.60;75.11;98242.48;1700771;83;21041;-69
2022/04/02 11:54:52;;;;;;;5.22;2.42;;;;;;;7.65;74.99;98246.39;1677707;83;21062;-69
2022/04/02 11:57:19;;;;;;;5.62;2.70;;;;;;;7.70;74.85;98241.78;1687123;83;21008;-68
2022/04/02 11:59:56;;;;;;;4.60;2.35;;;;;;;7.78;74.44;98243.50;1707819;81;21028;-69
2022/04/02 12:02:40;;;;;;;4.47;2.30;;;;;;;7.86;74.43;98240.92;1685358;84;21075;-69
2022/04/02 12:05:10;;;;;;;4.55;2.37;;;;;;;7.94;74.00;98234.94;1696768;82;21102;-70
2022/04/02 12:07:48;;;;;;;4.70;2.27;;;;;;;8.02;73.80;98237.43;1694689;82;21035;-69
2022/04/02 12:10:23;;;;;;;3.60;1.65;;;;;;;8.10;73.42;98238.08;1692040;82;21127;-68
2022/04/02 12:12:53;;;;;;;3.42;1.90;;;;;;;8.14;72.63;98250.23;1694098;82;21109;-69
2022/04/02 12:15:20;;;;;;;4.35;1.98;;;;;;;8.11;72.15;98247.63;1705505;82;21063;-68
2022/04/02 12:17:53;;;;;;;3.77;1.90;;;;;;;8.10;71.44;98253.25;1700286;82;21070;-69
2022/04/02 12:20:39;;;;;;;3.15;1.50;;;;;;;8.05;71.13;98252.01;1677356;83;21075;-70
2022/04/02 12:23:17;;;;;;;3.40;1.87;;;;;;;7.99;71.05;98248.14;1688603;82;21097;-69
2022/04/02 12:25:57;;;;;;;4.42;2.22;;;;;;;7.94;71.10;98260.73;1689509;83;21035;-70